CMA CGM Hugo — DCTA2 — position and weather

sailwx.info

Track history (hours):
 
Tides and Currents Weather Stations Pressure Air Temp Water Temp Dewpoint Dewpoint Depression Visibility Wind Speed Wind Dir Waves Ship Positions

CMA CGM Hugo

Last reported at 2015-Jan-28 03:26 UTC. Time now 2015-Jan-28 12:15 UTC.
Position S 34°54' W 056°13'.

Length 334.1 m; beam 42.8 m; draft 14.5 m.

Type: Ship. MMSI: 211831000.

Date/timePositionNaut miles runAvg speedWind from/ knotsBaromVisibWave heightAir tempDewpointWater temp
2015-Jan-28 03:26S 34°54' W 056°13'0 0.0
2015-Jan-28 02:26S 34°54' W 056°13'0 0.0
2015-Jan-28 01:19S 34°54' W 056°13'15 0.6
2015-Jan-26 23:28S 35°03' W 055°58'0 0.0
2015-Jan-26 22:33S 35°03' W 055°58'0 0.0
2015-Jan-26 21:33S 35°03' W 055°58'0 0.0
2015-Jan-26 20:32S 35°03' W 055°58'59 4.5
2015-Jan-26 07:14S 35°02' W 057°10'913.3
2015-Jan-26 06:33S 34°55' W 057°17'1413.7
2015-Jan-26 05:34S 34°47' W 057°31'1313.3
2015-Jan-26 04:33S 34°44' W 057°47'9 9.4
2015-Jan-26 03:33S 34°41' W 057°57'1514.5
2015-Jan-26 02:33S 34°37' W 058°14'6 6.4
2015-Jan-26 01:33S 34°35' W 058°22'0 0.0
2015-Jan-26 00:31S 34°35' W 058°22'0 0.0
2015-Jan-25 23:31S 34°35' W 058°22'0 0.0
2015-Jan-25 22:31S 34°35' W 058°22'0 0.0
2015-Jan-25 21:33S 34°35' W 058°22'0 0.0
2015-Jan-25 20:33S 34°35' W 058°22'0 0.0
2015-Jan-25 19:32S 34°35' W 058°22'0 0.0
2015-Jan-25 18:32S 34°35' W 058°22'0 0.0
2015-Jan-25 17:31S 34°35' W 058°22'0 0.0
2015-Jan-25 16:28S 34°35' W 058°22'0 0.0
2015-Jan-25 15:34S 34°35' W 058°22'0 0.0
2015-Jan-25 14:27S 34°35' W 058°22'0 0.0
2015-Jan-25 13:21S 34°35' W 058°22'0 0.0
2015-Jan-25 12:05S 34°35' W 058°22'0 0.0
2015-Jan-25 11:26S 34°35' W 058°22'0 0.0
2015-Jan-25 10:22S 34°35' W 058°22'0 0.0
2015-Jan-25 09:16S 34°35' W 058°22'0 0.0
2015-Jan-25 08:12S 34°35' W 058°22'0 0.0
2015-Jan-25 07:21S 34°35' W 058°22'0 0.0
2015-Jan-25 06:33S 34°35' W 058°22'0 0.0
2015-Jan-25 05:29S 34°35' W 058°22'0 0.0
2015-Jan-25 03:31S 34°35' W 058°22'0 0.0
2015-Jan-25 02:31S 34°35' W 058°22'0 0.0
2015-Jan-25 01:33S 34°35' W 058°22'0 0.0
2015-Jan-25 00:33S 34°35' W 058°22'0 0.0
2015-Jan-24 22:23S 34°35' W 058°22'0 0.0
2015-Jan-24 21:05S 34°35' W 058°22'0 0.0
2015-Jan-24 18:12S 34°35' W 058°22'0 0.0
2015-Jan-24 17:33S 34°35' W 058°22'  
2015-Jan-18 08:32S 27°45' W 048°12'1414.8
2015-Jan-18 07:34S 27°31' W 048°08'  
Track history (hours):
 
Tides and Currents Weather Stations Pressure Air Temp Water Temp Dewpoint Dewpoint Depression Visibility Wind Speed Wind Dir Waves Ship Positions

CMA CGM Hugo

Last reported at 2015-Jan-28 03:26 UTC. Time now 2015-Jan-28 12:15 UTC.
Position S 34°54' W 056°13'.

Length 334.1 m; beam 42.8 m; draft 14.5 m.

Type: Ship. MMSI: 211831000.

Date/timePositionNaut miles runAvg speedWind from/ knotsBaromVisibWave heightAir tempDewpointWater temp
2015-Jan-28 03:26S 34°54' W 056°13'0 0.0
2015-Jan-28 02:26S 34°54' W 056°13'0 0.0
2015-Jan-28 01:19S 34°54' W 056°13'15 0.6
2015-Jan-26 23:28S 35°03' W 055°58'0 0.0
2015-Jan-26 22:33S 35°03' W 055°58'0 0.0
2015-Jan-26 21:33S 35°03' W 055°58'0 0.0
2015-Jan-26 20:32S 35°03' W 055°58'59 4.5
2015-Jan-26 07:14S 35°02' W 057°10'913.3
2015-Jan-26 06:33S 34°55' W 057°17'1413.7
2015-Jan-26 05:34S 34°47' W 057°31'1313.3
2015-Jan-26 04:33S 34°44' W 057°47'9 9.4
2015-Jan-26 03:33S 34°41' W 057°57'1514.5
2015-Jan-26 02:33S 34°37' W 058°14'6 6.4
2015-Jan-26 01:33S 34°35' W 058°22'0 0.0
2015-Jan-26 00:31S 34°35' W 058°22'0 0.0
2015-Jan-25 23:31S 34°35' W 058°22'0 0.0
2015-Jan-25 22:31S 34°35' W 058°22'0 0.0
2015-Jan-25 21:33S 34°35' W 058°22'0 0.0
2015-Jan-25 20:33S 34°35' W 058°22'0 0.0
2015-Jan-25 19:32S 34°35' W 058°22'0 0.0
2015-Jan-25 18:32S 34°35' W 058°22'0 0.0
2015-Jan-25 17:31S 34°35' W 058°22'0 0.0
2015-Jan-25 16:28S 34°35' W 058°22'0 0.0
2015-Jan-25 15:34S 34°35' W 058°22'0 0.0
2015-Jan-25 14:27S 34°35' W 058°22'0 0.0
2015-Jan-25 13:21S 34°35' W 058°22'0 0.0
2015-Jan-25 12:05S 34°35' W 058°22'0 0.0
2015-Jan-25 11:26S 34°35' W 058°22'0 0.0
2015-Jan-25 10:22S 34°35' W 058°22'0 0.0
2015-Jan-25 09:16S 34°35' W 058°22'0 0.0
2015-Jan-25 08:12S 34°35' W 058°22'0 0.0
2015-Jan-25 07:21S 34°35' W 058°22'0 0.0
2015-Jan-25 06:33S 34°35' W 058°22'0 0.0
2015-Jan-25 05:29S 34°35' W 058°22'0 0.0
2015-Jan-25 03:31S 34°35' W 058°22'0 0.0
2015-Jan-25 02:31S 34°35' W 058°22'0 0.0
2015-Jan-25 01:33S 34°35' W 058°22'0 0.0
2015-Jan-25 00:33S 34°35' W 058°22'0 0.0
2015-Jan-24 22:23S 34°35' W 058°22'0 0.0
2015-Jan-24 21:05S 34°35' W 058°22'0 0.0
2015-Jan-24 18:12S 34°35' W 058°22'0 0.0
2015-Jan-24 17:33S 34°35' W 058°22'  
2015-Jan-18 08:32S 27°45' W 048°12'1414.8
2015-Jan-18 07:34S 27°31' W 048°08'  

Dump ship's entire track history